Time;durP1;ratioP1;P1;durP2;ratioP2;P2;SDS_P1;SDS_P2;PMS_P1;PMS_P2;Temp;Humidity;BMP_temperature;BMP_pressure;BME280_temperature;BME280_humidity;BME280_pressure;Samples;Min_cycle;Max_cycle;Signal;HPM_P1;HPM_P2
2022/11/21 00:02:19;;;;;;;118.65;49.05;;;;;;;-5.56;74.39;99540.31;2102947;84;32344;-60
2022/11/21 00:05:21;;;;;;;115.47;50.70;;;;;;;-5.59;74.26;99542.49;2103062;84;33345;-61
2022/11/21 00:08:23;;;;;;;114.22;49.60;;;;;;;-5.60;74.37;99539.86;2103487;84;29104;-60
2022/11/21 00:11:24;;;;;;;118.65;48.55;;;;;;;-5.60;74.42;99531.61;2102824;84;27683;-61
2022/11/21 00:14:26;;;;;;;116.50;48.85;;;;;;;-5.61;74.40;99535.50;2097288;84;28685;-60
2022/11/21 00:17:27;;;;;;;120.65;51.18;;;;;;;-5.71;74.49;99514.61;2096342;84;31386;-61
2022/11/21 00:20:29;;;;;;;116.85;48.85;;;;;;;-5.61;74.40;99537.70;2096324;84;33343;-61
2022/11/21 00:23:31;;;;;;;113.57;49.45;;;;;;;-5.63;74.39;99526.83;2095835;84;29367;-63
2022/11/21 00:26:32;;;;;;;112.68;49.98;;;;;;;-5.63;74.35;99529.44;2101569;84;27718;-62
2022/11/21 00:29:34;;;;;;;116.42;48.17;;;;;;;-5.65;74.44;99526.39;2102771;84;29858;-61
2022/11/21 00:32:35;;;;;;;119.77;51.33;;;;;;;-5.65;74.44;99530.72;2101621;84;31413;-61
2022/11/21 00:35:37;;;;;;;127.80;52.40;;;;;;;-5.66;74.53;99522.03;2101510;84;33325;-61
2022/11/21 00:38:39;;;;;;;120.92;50.65;;;;;;;-5.65;74.52;99517.67;2102296;84;30557;-61
2022/11/21 00:41:40;;;;;;;124.33;50.78;;;;;;;-5.65;74.55;99516.36;2074413;84;27868;-61
2022/11/21 00:44:42;;;;;;;130.70;55.65;;;;;;;-5.65;74.62;99525.08;2081770;85;29498;-63
2022/11/21 00:47:44;;;;;;;133.22;52.78;;;;;;;-5.65;74.62;99514.65;2081591;85;30850;-61
2022/11/21 00:50:48;;;;;;;129.15;50.23;;;;;;;-5.63;74.66;99515.09;2081149;85;34319;-61
2022/11/21 00:53:50;;;;;;;123.50;52.78;;;;;;;-5.65;74.75;99507.23;2081355;85;29715;-61
2022/11/21 00:56:52;;;;;;;139.22;53.13;;;;;;;-5.63;74.87;99511.17;2081629;85;27817;-62
2022/11/21 00:59:55;;;;;;;134.20;53.95;;;;;;;-5.62;75.09;99516.38;2081194;85;29910;-62
2022/11/21 01:02:57;;;;;;;108.72;46.30;;;;;;;-5.60;75.22;99508.13;2081207;85;32239;-61
2022/11/21 01:06:03;;;;;;;128.75;53.70;;;;;;;-5.54;75.95;99505.97;2081489;85;34250;-61
2022/11/21 01:09:05;;;;;;;131.87;55.92;;;;;;;-5.43;76.41;99509.47;2069374;85;30512;-61
2022/11/21 01:12:07;;;;;;;135.65;53.87;;;;;;;-5.35;76.23;99499.05;2060374;86;28222;-61
2022/11/21 01:15:10;;;;;;;127.22;50.17;;;;;;;-5.27;76.23;99488.62;2062387;85;27990;-61
2022/11/21 01:18:11;;;;;;;123.95;50.70;;;;;;;-5.17;76.61;99475.14;2040267;87;31963;-61
2022/11/21 01:21:18;;;;;;;124.58;51.53;;;;;;;-5.04;77.23;99465.13;2040302;87;34434;-61
2022/11/21 01:24:19;;;;;;;113.25;48.38;;;;;;;-4.86;77.84;99456.44;2063264;85;30111;-61
2022/11/21 01:27:21;;;;;;;121.45;52.13;;;;;;;-4.66;77.98;99464.25;2083913;85;27580;-61
2022/11/21 01:30:23;;;;;;;121.67;54.33;;;;;;;-4.49;77.94;99464.66;2083591;84;29824;-61
2022/11/21 01:33:25;;;;;;;132.80;54.08;;;;;;;-4.34;77.96;99454.16;2076719;84;32429;-62
2022/11/21 01:36:31;;;;;;;121.28;53.17;;;;;;;-4.17;78.10;99446.70;2062417;86;34313;-61
2022/11/21 01:39:32;;;;;;;120.67;52.98;;;;;;;-4.02;78.13;99445.79;2065538;84;29240;-61
2022/11/21 01:42:52;;;;;;;124.62;51.33;;;;;;;-3.86;78.26;99450.50;2102995;84;27726;-62
2022/11/21 01:46:10;;;;;;;113.15;51.30;;;;;;;-3.71;78.31;99441.71;2106728;84;29104;-61
2022/11/21 01:49:19;;;;;;;115.67;50.73;;;;;;;-3.56;78.33;99439.45;2110691;84;31106;-61
2022/11/21 01:52:28;;;;;;;117.67;46.45;;;;;;;-3.42;78.37;99433.69;2105903;83;34339;-61
2022/11/21 01:55:30;;;;;;;111.12;48.00;;;;;;;-3.30;78.38;99420.92;2103245;84;29445;-61
2022/11/21 01:58:33;;;;;;;112.65;48.90;;;;;;;-3.17;78.38;99416.92;2103339;84;27674;-61
2022/11/21 02:01:36;;;;;;;117.45;50.58;;;;;;;-3.09;78.36;99422.53;2103200;84;29911;-62
2022/11/21 02:04:39;;;;;;;113.03;48.42;;;;;;;-2.98;78.28;99421.56;2103730;84;31165;-62
2022/11/21 02:07:43;;;;;;;105.58;46.37;;;;;;;-2.87;78.32;99415.77;2103324;84;34111;-64
2022/11/21 02:11:28;;;;;;;77.42;30.77;;;;;;;-2.75;78.29;99405.62;2103358;84;29152;-62
2022/11/21 02:14:31;;;;;;;100.85;41.45;;;;;;;-2.65;78.40;99402.04;2103167;84;28243;-62
2022/11/21 02:17:33;;;;;;;93.50;42.85;;;;;;;-2.56;78.25;99401.05;2110312;84;29051;-63
2022/11/21 02:20:36;;;;;;;95.67;43.10;;;;;;;-2.49;78.19;99410.59;2110490;84;31417;-62
2022/11/21 02:23:42;;;;;;;97.00;43.73;;;;;;;-2.39;78.17;99412.67;2110352;84;32969;-61
2022/11/21 02:26:46;;;;;;;91.85;43.42;;;;;;;-2.28;78.18;99408.63;2110295;84;29738;-62
2022/11/21 02:29:48;;;;;;;93.40;42.53;;;;;;;-2.19;78.14;99399.31;2084440;84;28418;-62
2022/11/21 02:32:49;;;;;;;94.58;41.48;;;;;;;-2.10;78.06;99386.98;2105511;84;29311;-62
2022/11/21 02:35:59;;;;;;;81.42;38.90;;;;;;;-2.03;77.99;99376.39;2103505;84;31408;-62
2022/11/21 02:39:01;;;;;;;83.35;37.48;;;;;;;-1.95;77.99;99372.34;2103219;84;33074;-62
2022/11/21 02:42:32;;;;;;;86.00;39.55;;;;;;;-1.91;77.81;99367.91;2103049;84;29719;-64
2022/11/21 02:45:41;;;;;;;77.50;35.30;;;;;;;-1.87;77.75;99365.22;2102615;84;27849;-62
2022/11/21 02:48:43;;;;;;;75.47;35.33;;;;;;;-1.83;77.71;99360.81;2103335;84;28656;-62
2022/11/21 02:51:44;;;;;;;83.37;39.90;;;;;;;-1.79;77.66;99351.13;2103132;84;31609;-62
2022/11/21 02:54:46;;;;;;;82.20;40.28;;;;;;;-1.77;77.65;99347.58;2103369;84;34131;-62
2022/11/21 02:57:48;;;;;;;84.65;40.95;;;;;;;-1.72;77.61;99331.75;2103430;84;30457;-63
2022/11/21 03:00:49;;;;;;;82.12;38.80;;;;;;;-1.69;77.55;99329.09;2104233;84;27635;-62
2022/11/21 03:03:51;;;;;;;83.82;38.98;;;;;;;-1.66;77.53;99334.75;2103393;84;29104;-63
2022/11/21 03:06:52;;;;;;;78.40;35.85;;;;;;;-1.62;77.50;99332.05;2103370;84;31422;-62
2022/11/21 03:09:54;;;;;;;74.42;35.43;;;;;;;-1.59;77.39;99328.50;2103073;84;34157;-62
2022/11/21 03:12:59;;;;;;;76.50;36.05;;;;;;;-1.56;77.38;99317.95;2106564;84;29532;-63
2022/11/21 03:15:59;;;;;;;75.50;35.63;;;;;;;-1.54;77.39;99315.71;2109890;83;28200;-62
2022/11/21 03:19:01;;;;;;;86.05;39.45;;;;;;;-1.49;77.41;99312.15;2107707;84;29105;-63
2022/11/21 03:22:02;;;;;;;78.42;38.55;;;;;;;-1.44;77.41;99309.86;2103379;84;31071;-62
2022/11/21 03:25:05;;;;;;;84.13;38.30;;;;;;;-1.39;77.40;99300.58;2103440;84;33338;-62
2022/11/21 03:28:07;;;;;;;81.80;39.80;;;;;;;-1.36;77.28;99293.97;2061405;85;29392;-62
2022/11/21 03:31:08;;;;;;;83.95;38.60;;;;;;;-1.33;77.29;99292.61;2071733;85;27675;-62
2022/11/21 03:34:10;;;;;;;84.95;40.50;;;;;;;-1.32;77.25;99285.15;2103443;84;29045;-63
2022/11/21 03:37:11;;;;;;;84.03;39.10;;;;;;;-1.28;77.27;99275.02;2103082;84;32353;-63
2022/11/21 03:40:14;;;;;;;85.62;40.85;;;;;;;-1.23;77.28;99274.92;2101844;84;33298;-62
2022/11/21 03:43:16;;;;;;;79.50;38.38;;;;;;;-1.20;77.21;99266.11;2060327;85;29427;-62
2022/11/21 03:46:18;;;;;;;76.22;36.10;;;;;;;-1.17;77.15;99260.80;2060603;86;27626;-63
2022/11/21 03:49:20;;;;;;;79.97;38.48;;;;;;;-1.14;77.14;99255.49;2092478;84;29871;-60
2022/11/21 03:52:21;;;;;;;84.90;40.78;;;;;;;-1.17;77.03;99251.61;2096693;84;31588;-61
2022/11/21 03:55:23;;;;;;;76.22;36.05;;;;;;;-1.17;77.13;99241.97;2096138;84;34347;-61
2022/11/21 03:58:25;;;;;;;88.58;38.92;;;;;;;-1.16;77.12;99240.20;2096955;84;29755;-62
2022/11/21 04:01:27;;;;;;;73.65;37.50;;;;;;;-1.17;77.08;99242.41;2096702;84;27667;-61
2022/11/21 04:04:29;;;;;;;72.67;33.90;;;;;;;-1.15;77.20;99237.52;2096476;84;29065;-62
2022/11/21 04:07:31;;;;;;;80.77;39.75;;;;;;;-1.13;77.18;99233.58;2096500;84;32162;-62
2022/11/21 04:10:32;;;;;;;76.87;37.35;;;;;;;-1.14;77.06;99222.64;2096102;84;34320;-62
2022/11/21 04:13:34;;;;;;;76.30;36.33;;;;;;;-1.17;77.08;99217.44;2096568;84;30509;-61
2022/11/21 04:16:36;;;;;;;73.15;36.35;;;;;;;-1.18;77.06;99219.22;2090151;84;27572;-62
2022/11/21 04:19:37;;;;;;;78.25;37.88;;;;;;;-1.20;77.11;99215.75;2086725;85;29064;-61
2022/11/21 04:22:39;;;;;;;73.65;37.08;;;;;;;-1.21;77.12;99220.59;2086683;85;32214;-61
2022/11/21 04:25:41;;;;;;;67.82;35.33;;;;;;;-1.20;77.18;99217.06;2086820;84;33230;-67
2022/11/21 04:28:42;;;;;;;78.07;36.70;;;;;;;-1.18;77.23;99215.27;2086324;85;29437;-62
2022/11/21 04:31:43;;;;;;;77.62;37.03;;;;;;;-1.17;77.23;99214.81;2087077;84;27669;-62
2022/11/21 04:34:44;;;;;;;73.72;35.08;;;;;;;-1.16;77.23;99203.41;2086840;85;29073;-62
2022/11/21 04:37:45;;;;;;;76.85;37.25;;;;;;;-1.14;77.28;99198.99;2086320;85;31517;-62
2022/11/21 04:40:46;;;;;;;76.47;35.75;;;;;;;-1.15;77.20;99189.38;2088053;84;33819;-61
2022/11/21 04:43:48;;;;;;;74.80;34.92;;;;;;;-1.14;77.30;99177.50;2101517;84;29750;-62
2022/11/21 04:46:49;;;;;;;77.00;37.60;;;;;;;-1.13;77.35;99171.35;2103057;84;27508;-62
2022/11/21 04:49:50;;;;;;;76.90;37.58;;;;;;;-1.12;77.33;99165.20;2102614;84;30051;-62
2022/11/21 04:52:54;;;;;;;77.32;37.80;;;;;;;-1.11;77.36;99161.68;2102920;84;31380;-63
2022/11/21 04:55:56;;;;;;;60.25;27.42;;;;;;;-1.11;77.27;99160.83;2103142;84;32977;-62
2022/11/21 04:58:57;;;;;;;74.77;36.88;;;;;;;-1.14;77.33;99160.89;2101129;84;29325;-61
2022/11/21 05:01:58;;;;;;;75.32;36.88;;;;;;;-1.12;77.40;99165.20;2103117;84;27666;-63
2022/11/21 05:05:00;;;;;;;72.25;36.53;;;;;;;-1.11;77.42;99168.25;2103078;84;28696;-61
2022/11/21 05:08:01;;;;;;;75.15;36.48;;;;;;;-1.10;77.46;99162.09;2102922;84;32216;-61
2022/11/21 05:14:25;;;;;;;72.78;35.63;;;;;;;-1.02;77.59;99151.42;2095986;84;30544;-62
2022/11/21 05:17:29;;;;;;;70.50;33.58;;;;;;;-0.98;77.57;99148.27;2101620;84;27695;-60
2022/11/21 05:20:30;;;;;;;;;;;;;;;-0.95;77.56;99141.21;2075977;85;28642;-61
2022/11/21 05:23:32;;;;;;;74.90;34.95;;;;;;;-0.89;77.45;99137.58;2073111;85;31442;-61
2022/11/21 05:26:33;;;;;;;70.60;35.15;;;;;;;-0.87;77.46;99137.09;2073334;85;32722;-61
2022/11/21 05:29:34;;;;;;;71.07;34.55;;;;;;;-0.84;77.42;99129.58;2073311;85;30458;-62
2022/11/21 05:32:36;;;;;;;71.25;33.67;;;;;;;-0.84;77.31;99122.58;2077081;84;27718;-61
2022/11/21 05:35:37;;;;;;;70.52;35.30;;;;;;;-0.80;77.31;99123.37;2101135;84;29104;-61
2022/11/21 05:38:38;;;;;;;66.55;33.65;;;;;;;-0.78;77.28;99115.00;2101225;84;32142;-60
2022/11/21 05:41:39;;;;;;;63.65;30.62;;;;;;;-0.78;77.19;99107.11;2088741;84;33323;-60
2022/11/21 05:44:41;;;;;;;78.55;38.67;;;;;;;-0.76;77.21;99105.31;2061243;85;29753;-61
2022/11/21 05:47:42;;;;;;;87.40;40.08;;;;;;;-0.76;77.21;99090.85;2081452;85;27674;-61
2022/11/21 05:50:48;;;;;;;72.22;34.53;;;;;;;-0.74;77.20;99088.17;2066785;86;28400;-62
2022/11/21 05:53:49;;;;;;;66.20;34.85;;;;;;;-0.72;77.26;99084.59;2066451;86;32085;-62
2022/11/21 05:56:50;;;;;;;74.95;35.75;;;;;;;-0.71;77.25;99083.70;2066683;86;34136;-61
2022/11/21 05:59:52;;;;;;;67.60;33.38;;;;;;;-0.68;77.25;99079.69;2066611;86;29796;-61
2022/11/21 06:06:15;;;;;;;62.85;30.37;;;;;;;-0.65;77.25;99073.48;2066435;85;29929;-62
2022/11/21 06:09:16;;;;;;;73.10;34.95;;;;;;;-0.64;77.25;99072.58;2066550;86;31115;-62
2022/11/21 06:12:17;;;;;;;68.65;35.20;;;;;;;-0.65;77.30;99067.79;2066647;86;34172;-61
2022/11/21 06:15:18;;;;;;;73.97;36.10;;;;;;;-0.67;77.21;99063.47;2066898;86;29732;-61
2022/11/21 06:18:20;;;;;;;71.70;37.63;;;;;;;-0.64;77.30;99063.37;2066968;85;27546;-61
2022/11/21 06:21:25;;;;;;;72.15;36.55;;;;;;;-0.64;77.33;99075.21;2066995;86;29477;-61
2022/11/21 06:24:26;;;;;;;80.22;35.83;;;;;;;-0.63;77.33;99076.51;2067023;86;31024;-61
2022/11/21 06:27:29;;;;;;;75.05;36.30;;;;;;;-0.63;77.37;99058.53;2064191;86;33377;-61
2022/11/21 06:30:30;;;;;;;68.30;34.88;;;;;;;-0.62;77.40;99060.27;2062381;86;30200;-63
2022/11/21 06:33:33;;;;;;;68.10;34.98;;;;;;;-0.60;77.43;99049.26;2040783;87;27702;-61
2022/11/21 06:36:34;;;;;;;71.77;35.65;;;;;;;-0.58;77.43;99053.19;2040711;87;28559;-61
2022/11/21 06:39:36;;;;;;;69.00;34.92;;;;;;;-0.59;77.38;99044.41;2070271;85;32201;-61
2022/11/21 06:42:37;;;;;;;65.50;35.75;;;;;;;-0.60;77.40;99051.89;2097172;83;33353;-61
2022/11/21 06:45:39;;;;;;;72.15;34.40;;;;;;;-0.61;77.44;99054.10;2110197;84;30480;-61
2022/11/21 06:48:41;;;;;;;70.05;35.05;;;;;;;-0.60;77.44;99061.56;2106185;84;27691;-61
2022/11/21 06:51:43;;;;;;;76.07;35.55;;;;;;;-0.61;77.48;99062.00;2103408;84;29036;-61
2022/11/21 06:54:44;;;;;;;71.35;36.68;;;;;;;-0.61;77.59;99056.73;2103463;84;32165;-61
2022/11/21 06:57:45;;;;;;;75.83;37.30;;;;;;;-0.62;77.58;99052.38;2103491;84;33070;-61
2022/11/21 07:00:47;;;;;;;80.80;37.15;;;;;;;-0.60;77.60;99057.15;2103340;84;30462;-61
2022/11/21 07:03:49;;;;;;;76.20;36.63;;;;;;;-0.58;77.67;99053.19;2103302;84;27662;-61
2022/11/21 07:06:50;;;;;;;70.35;35.13;;;;;;;-0.53;77.72;99051.28;2103487;84;29824;-62
2022/11/21 07:09:51;;;;;;;71.02;36.33;;;;;;;-0.52;77.67;99052.58;2103215;84;31763;-61
2022/11/21 07:16:17;;;;;;;75.22;35.70;;;;;;;-0.39;77.82;99058.38;2103316;84;30596;-61
2022/11/21 07:19:19;;;;;;;80.47;37.15;;;;;;;-0.32;77.85;99053.39;2103313;84;27662;-62
2022/11/21 07:22:20;;;;;;;70.67;35.48;;;;;;;-0.27;77.74;99055.89;2103132;84;28682;-62
2022/11/21 07:25:22;;;;;;;79.27;37.93;;;;;;;-0.21;77.73;99056.19;2103221;84;31420;-62
2022/11/21 07:28:23;;;;;;;80.87;39.53;;;;;;;-0.17;77.71;99053.89;2066663;85;34094;-61
2022/11/21 07:31:24;;;;;;;79.05;37.13;;;;;;;-0.09;77.80;99061.16;2075097;85;29890;-61
2022/11/21 07:34:25;;;;;;;78.17;37.95;;;;;;;-0.01;77.75;99051.73;2088638;85;27655;-61
2022/11/21 07:37:27;;;;;;;75.57;36.88;;;;;;;0.03;77.54;99057.31;2088355;85;29826;-61
2022/11/21 07:40:32;;;;;;;73.15;37.30;;;;;;;0.08;77.63;99053.27;2087997;85;32233;-62
2022/11/21 07:43:32;;;;;;;55.47;26.63;;;;;;;0.15;77.72;99050.86;2086731;85;32633;-60
2022/11/21 07:46:34;;;;;;;71.07;35.25;;;;;;;0.23;77.66;99054.16;2086362;84;30523;-61
2022/11/21 07:49:35;;;;;;;81.72;38.20;;;;;;;0.30;77.75;99051.75;2086552;84;27635;-60
2022/11/21 07:52:37;;;;;;;74.87;37.63;;;;;;;0.39;77.67;99054.58;2046329;86;28694;-60
2022/11/21 07:55:38;;;;;;;72.45;35.45;;;;;;;0.51;77.79;99044.59;2083627;85;32204;-60
2022/11/21 07:58:40;;;;;;;70.37;36.58;;;;;;;0.61;77.67;99047.38;2083719;85;33107;-60
2022/11/21 08:01:42;;;;;;;74.25;37.13;;;;;;;0.70;77.67;99040.98;2083356;84;30561;-60
2022/11/21 08:04:44;;;;;;;66.47;35.33;;;;;;;0.81;77.75;99036.70;2083709;84;28309;-60
2022/11/21 08:07:45;;;;;;;66.10;33.95;;;;;;;0.93;77.78;99040.72;2083700;85;29671;-59
2022/11/21 08:10:46;;;;;;;67.85;33.65;;;;;;;1.05;77.66;99028.03;2083696;84;31396;-60
2022/11/21 08:13:48;;;;;;;66.67;32.85;;;;;;;1.14;77.56;99032.63;2083505;84;34322;-60
2022/11/21 08:16:51;;;;;;;64.60;32.73;;;;;;;1.24;77.62;99026.60;2083760;85;30506;-61
2022/11/21 08:19:53;;;;;;;66.02;36.08;;;;;;;1.36;77.56;99034.95;2083639;84;27613;-60
2022/11/21 08:22:54;;;;;;;64.60;34.35;;;;;;;1.45;77.43;99035.59;2083549;85;28655;-60
2022/11/21 08:25:57;;;;;;;70.35;34.90;;;;;;;1.54;77.44;99039.23;2083750;85;32168;-60
2022/11/21 08:28:59;;;;;;;70.92;36.73;;;;;;;1.62;77.26;99035.89;2083243;84;34220;-60
2022/11/21 08:32:01;;;;;;;68.85;35.55;;;;;;;1.71;77.37;99035.16;2083554;84;30316;-60
2022/11/21 08:35:03;;;;;;;70.32;36.63;;;;;;;1.78;77.23;99037.54;2083857;85;27694;-59
2022/11/21 08:38:06;;;;;;;71.45;35.75;;;;;;;1.87;77.24;99042.12;2083618;84;28708;-60
2022/11/21 08:44:27;;;;;;;75.12;37.88;;;;;;;2.01;77.19;99038.98;2062935;85;35075;-61
2022/11/21 08:47:29;;;;;;;70.10;39.73;;;;;;;2.08;77.19;99039.18;2055660;86;29884;-60
2022/11/21 08:50:31;;;;;;;78.17;44.33;;;;;;;2.13;76.92;99039.89;2032463;86;28396;-61
2022/11/21 08:53:34;;;;;;;71.65;40.17;;;;;;;2.18;77.14;99031.80;2055015;86;29547;-60
2022/11/21 08:56:35;;;;;;;72.82;39.42;;;;;;;2.26;77.20;99038.97;2055024;86;32425;-61
2022/11/21 08:59:37;;;;;;;64.85;37.08;;;;;;;2.32;77.09;99036.12;2059990;85;34383;-64
2022/11/21 09:02:39;;;;;;;66.37;37.17;;;;;;;2.38;77.08;99036.34;2089386;85;29484;-60
2022/11/21 09:05:40;;;;;;;63.95;32.75;;;;;;;2.42;77.06;99036.17;2090021;85;27782;-60
2022/11/21 09:08:43;;;;;;;58.17;31.48;;;;;;;2.48;77.01;99034.23;2089884;85;28144;-61
2022/11/21 09:11:44;;;;;;;54.25;29.60;;;;;;;2.53;77.12;99037.10;2085211;85;31800;-60
2022/11/21 09:18:06;;;;;;;56.58;30.23;;;;;;;2.64;77.10;99043.31;2110472;84;30506;-60
2022/11/21 09:21:08;;;;;;;56.13;31.60;;;;;;;2.70;77.09;99044.42;2088190;85;28003;-61
2022/11/21 09:24:09;;;;;;;61.90;32.35;;;;;;;2.78;77.13;99046.77;2088441;85;29075;-61
2022/11/21 09:27:10;;;;;;;59.60;33.88;;;;;;;2.86;77.19;99039.87;2088206;85;32222;-60
2022/11/21 09:30:13;;;;;;;55.92;32.55;;;;;;;2.94;77.18;99036.92;2088176;85;33351;-59
2022/11/21 09:33:16;;;;;;;58.87;31.87;;;;;;;3.01;77.15;99042.36;2088225;85;30129;-61
2022/11/21 09:36:17;;;;;;;56.15;30.35;;;;;;;3.08;77.09;99043.86;2111010;84;27825;-60
2022/11/21 09:39:20;;;;;;;55.05;31.62;;;;;;;3.15;77.16;99043.16;2110949;84;29057;-60
2022/11/21 09:42:33;;;;;;;51.42;29.72;;;;;;;3.25;77.18;99044.97;2110549;84;32323;-64
2022/11/21 09:45:53;;;;;;;50.58;29.07;;;;;;;3.32;77.18;99042.47;2110652;84;33033;-60
2022/11/21 09:49:05;;;;;;;40.10;24.27;;;;;;;3.38;77.12;99044.03;2110982;84;29712;-61
2022/11/21 09:52:08;;;;;;;44.27;25.12;;;;;;;3.45;77.13;99036.22;2110298;84;27574;-62
2022/11/21 09:55:46;;;;;;;45.10;24.57;;;;;;;3.52;77.13;99038.15;2103328;84;29061;-60
2022/11/21 09:59:11;;;;;;;45.08;25.15;;;;;;;3.62;77.22;99037.71;2106397;84;32370;-61
2022/11/21 10:02:20;;;;;;;46.83;25.52;;;;;;;3.73;77.24;99045.22;2110799;83;33332;-61
2022/11/21 10:05:30;;;;;;;44.23;25.15;;;;;;;3.86;77.37;99048.66;2109710;84;29331;-60
2022/11/21 10:08:37;;;;;;;45.38;25.10;;;;;;;3.99;77.56;99051.18;2004590;87;27803;-60
2022/11/21 10:15:50;;;;;;;37.93;22.70;;;;;;;4.26;77.90;99044.30;2004335;88;32189;-61
2022/11/21 10:19:16;;;;;;;35.83;21.45;;;;;;;4.44;78.03;99044.42;2004376;88;34444;-60
2022/11/21 10:22:48;;;;;;;34.80;19.15;;;;;;;4.55;77.85;99029.72;2003852;88;29376;-61
2022/11/21 10:26:16;;;;;;;28.20;17.32;;;;;;;4.64;77.77;99031.09;2004722;88;27693;-63
2022/11/21 10:29:34;;;;;;;33.25;17.62;;;;;;;4.75;77.61;99033.73;2004558;88;29900;-64
2022/11/21 10:32:42;;;;;;;31.93;17.45;;;;;;;4.82;77.54;99028.08;1972695;88;31975;-60
2022/11/21 10:35:48;;;;;;;30.48;17.82;;;;;;;4.91;77.62;99021.47;2002887;88;33766;-60
2022/11/21 10:38:50;;;;;;;32.15;18.07;;;;;;;5.01;77.74;99016.11;2002597;88;29542;-60
2022/11/21 10:42:00;;;;;;;28.25;16.07;;;;;;;5.13;77.72;99016.48;2002921;88;28129;-62
2022/11/21 10:45:15;;;;;;;29.20;16.27;;;;;;;5.23;77.70;99020.41;2023745;85;28872;-61
2022/11/21 10:48:16;;;;;;;36.58;21.55;;;;;;;5.35;77.75;99020.73;2074545;85;31056;-65
2022/11/21 10:51:28;;;;;;;33.13;17.37;;;;;;;5.47;77.67;99022.77;2075000;85;34318;-64
2022/11/21 10:54:33;;;;;;;30.17;17.70;;;;;;;5.54;77.49;99020.70;2074145;85;29427;-67
2022/11/21 10:57:46;;;;;;;27.15;16.40;;;;;;;5.59;77.33;99021.31;2051238;85;27793;-68
2022/11/21 11:00:57;;;;;;;29.67;17.10;;;;;;;5.68;77.38;99019.55;2049212;86;28684;-67
2022/11/21 11:04:12;;;;;;;26.73;15.38;;;;;;;5.78;77.38;99016.80;2070125;85;32271;-67
2022/11/21 11:07:27;;;;;;;25.43;15.23;;;;;;;5.88;77.36;99018.52;2033787;87;34280;-64
2022/11/21 11:10:30;;;;;;;19.42;11.05;;;;;;;5.94;77.19;99023.98;2033054;87;36697;-65
2022/11/21 11:13:32;;;;;;;22.13;13.30;;;;;;;5.99;76.80;99025.95;2044971;87;27715;-66
2022/11/21 11:16:35;;;;;;;23.02;13.25;;;;;;;6.01;76.82;99023.23;2041439;87;29050;-65
2022/11/21 11:19:36;;;;;;;24.20;13.75;;;;;;;6.08;76.97;99025.98;2040526;87;31453;-64
2022/11/21 11:22:37;;;;;;;21.77;13.88;;;;;;;6.13;76.87;99025.73;2034563;87;34144;-64
2022/11/21 11:25:38;;;;;;;22.60;13.40;;;;;;;6.17;76.86;99029.96;2060456;86;29694;-66
2022/11/21 11:28:39;;;;;;;21.15;13.00;;;;;;;6.20;76.69;99031.14;2060316;85;27709;-67
2022/11/21 11:31:43;;;;;;;20.80;12.70;;;;;;;6.23;76.71;99030.95;2066805;86;29297;-67
2022/11/21 11:35:00;;;;;;;21.50;12.47;;;;;;;6.27;76.62;99039.17;2062466;86;31078;-70
2022/11/21 11:38:02;;;;;;;21.42;12.03;;;;;;;6.32;76.58;99042.45;2062414;86;32973;-69
2022/11/21 11:41:15;;;;;;;24.32;13.18;;;;;;;6.35;76.58;99042.75;2062405;86;29420;-67
2022/11/21 11:47:53;;;;;;;25.20;12.98;;;;;;;6.45;76.49;99044.00;2060954;86;29934;-69
2022/11/21 11:51:02;;;;;;;23.55;13.13;;;;;;;6.48;76.40;99038.98;2061381;86;31133;-68
2022/11/21 11:54:32;;;;;;;22.80;12.98;;;;;;;6.49;76.28;99035.38;2061430;86;32961;-68
2022/11/21 11:57:35;;;;;;;23.20;13.78;;;;;;;6.50;76.33;99045.93;2070139;85;30457;-69
2022/11/21 12:00:51;;;;;;;20.15;11.83;;;;;;;6.53;76.30;99050.25;2050215;86;27657;-68
2022/11/21 12:03:56;;;;;;;;;;;;;;;6.53;76.26;99047.10;2053513;86;29526;-69
2022/11/21 12:07:19;;;;;;;27.87;15.88;;;;;;;6.54;76.15;99039.97;2050204;86;31049;-68
2022/11/21 12:10:29;;;;;;;31.68;17.35;;;;;;;6.52;76.13;99046.71;2050296;86;33103;-68
2022/11/21 12:13:30;;;;;;;48.68;25.82;;;;;;;6.50;76.02;99052.58;2050452;86;30478;-68
2022/11/21 12:16:33;;;;;;;41.42;23.30;;;;;;;6.47;76.01;99057.22;2036691;86;27909;-68
2022/11/21 12:19:37;;;;;;;33.98;20.25;;;;;;;6.47;75.98;99063.86;2067193;86;29466;-69
2022/11/21 12:22:38;;;;;;;40.43;22.48;;;;;;;6.44;75.89;99066.23;2045823;87;31693;-66
2022/11/21 12:25:51;;;;;;;34.15;19.73;;;;;;;6.42;75.87;99070.77;2045820;87;34117;-69
2022/11/21 12:29:10;;;;;;;29.30;18.70;;;;;;;6.41;75.78;99081.02;2046150;86;29701;-65
2022/11/21 12:32:22;;;;;;;19.62;14.15;;;;;;;6.35;75.52;99087.97;2022180;88;28269;-67
2022/11/21 12:35:54;;;;;;;30.45;18.15;;;;;;;6.33;75.43;99101.36;2039658;87;29891;-66
2022/11/21 12:39:43;;;;;;;31.90;18.82;;;;;;;6.26;75.06;99106.59;2054170;86;31110;-67
2022/11/21 12:43:25;;;;;;;27.82;18.00;;;;;;;6.19;75.01;99107.86;2054568;86;33355;-66
2022/11/21 12:47:27;;;;;;;36.15;20.88;;;;;;;6.11;74.90;99117.56;2094932;84;30630;-65
2022/11/21 12:58:00;;;;;;;40.45;23.40;;;;;;;5.75;74.54;99119.73;2059697;86;31490;-66
2022/11/21 13:01:47;;;;;;;54.42;25.43;;;;;;;5.65;74.55;99123.77;2073712;85;34377;-64
2022/11/21 13:04:50;;;;;;;40.67;22.40;;;;;;;5.56;74.55;99132.58;2073848;85;29747;-67
2022/11/21 13:08:14;;;;;;;35.52;19.65;;;;;;;5.45;74.39;99131.77;2096206;84;27690;-65
2022/11/21 13:15:32;;;;;;;54.75;25.30;;;;;;;5.33;74.65;99141.16;2086162;84;31754;-66
2022/11/21 13:18:44;;;;;;;34.55;20.17;;;;;;;5.29;74.74;99141.38;2073584;85;33139;-70
2022/11/21 13:21:49;;;;;;;38.48;23.45;;;;;;;5.26;74.79;99141.52;2073871;85;29156;-69
2022/11/21 13:24:55;;;;;;;38.30;22.22;;;;;;;5.22;74.64;99152.77;2060273;86;27887;-70
2022/11/21 13:28:22;;;;;;;34.45;18.10;;;;;;;5.16;74.73;99153.03;2073652;85;29987;-68
2022/11/21 13:31:31;;;;;;;31.48;17.25;;;;;;;5.10;74.57;99150.67;2073517;85;27714;-68
2022/11/21 13:34:36;;;;;;;29.32;17.87;;;;;;;5.04;74.66;99163.77;2073585;85;34197;-69
2022/11/21 13:38:04;;;;;;;29.45;17.07;;;;;;;5.02;74.68;99161.65;2096482;84;29765;-69
2022/11/21 13:44:37;;;;;;;82.15;34.60;;;;;;;4.95;74.60;99165.49;2088332;84;30072;-68
2022/11/21 13:47:57;;;;;;;94.50;38.63;;;;;;;4.89;74.56;99167.08;2033676;87;31065;-69
2022/11/21 13:51:10;;;;;;;196.25;86.35;;;;;;;4.86;74.68;99172.08;2033519;87;32974;-69
2022/11/21 13:54:43;;;;;;;112.52;57.53;;;;;;;4.83;74.71;99179.72;2047772;86;29399;-68
2022/11/21 13:58:13;;;;;;;85.65;46.60;;;;;;;4.82;74.78;99179.77;2048049;86;27636;-70
2022/11/21 14:01:26;;;;;;;66.37;37.93;;;;;;;4.79;74.81;99188.73;2047442;87;28781;-70
2022/11/21 14:05:16;;;;;;;61.30;35.20;;;;;;;4.77;74.70;99189.73;2047701;86;32224;-70
2022/11/21 14:08:23;;;;;;;30.12;20.32;;;;;;;4.74;74.74;99193.84;2045026;86;34108;-68
2022/11/21 14:11:36;;;;;;;31.52;19.05;;;;;;;4.65;74.67;99199.93;2047438;86;29377;-70
2022/11/21 14:14:49;;;;;;;50.45;32.28;;;;;;;4.59;74.53;99206.84;2049533;86;27723;-70
2022/11/21 14:17:56;;;;;;;44.42;26.37;;;;;;;4.54;74.64;99207.05;2056996;86;28777;-68
2022/11/21 14:21:00;;;;;;;24.45;16.07;;;;;;;4.46;74.48;99210.48;2057178;86;32297;-69
2022/11/21 14:24:06;;;;;;;28.97;20.50;;;;;;;4.38;74.46;99212.60;2057428;86;33780;-69
2022/11/21 14:27:13;;;;;;;30.92;19.52;;;;;;;4.33;74.43;99222.05;2055788;86;29324;-67
2022/11/21 14:30:34;;;;;;;29.63;18.05;;;;;;;4.29;74.53;99227.11;2057241;86;27604;-67
2022/11/21 14:33:39;;;;;;;31.17;18.73;;;;;;;4.25;74.40;99224.17;2056181;86;30146;-65
2022/11/21 14:36:40;;;;;;;33.35;20.35;;;;;;;4.19;74.50;99225.29;2057311;86;31283;-66
2022/11/21 14:39:42;;;;;;;35.33;21.30;;;;;;;4.16;74.51;99230.70;2053951;86;33563;-65
2022/11/21 14:42:43;;;;;;;54.35;32.45;;;;;;;4.12;74.51;99225.60;2047891;86;30476;-66
2022/11/21 14:45:49;;;;;;;67.92;42.90;;;;;;;4.06;74.51;99229.34;2078223;84;28219;-65
2022/11/21 14:48:51;;;;;;;50.23;27.55;;;;;;;4.02;74.43;99228.60;2096220;84;29199;-65
2022/11/21 14:52:29;;;;;;;53.75;30.00;;;;;;;3.95;74.50;99237.74;2095980;84;31601;-66
2022/11/21 14:55:32;;;;;;;52.33;27.50;;;;;;;3.92;74.51;99241.83;2096296;84;32669;-67
2022/11/21 14:58:33;;;;;;;45.75;26.90;;;;;;;3.87;74.49;99249.09;2103713;83;29361;-65